Nearby METAR Reports

 

KSJC - San Jose, California, USA
Distance from station: NE 9mi, 14km
Updated: Tue, Sep-18-2018 5:53pm CDT
Few Clouds
Few Clouds
 Wind from NW
Wind: NW 13 mph , 20 km/h
Temperature: 72°F , 22°C
Dew Point: 54°F , 12°C
Humidity: 53%
Barometer: 29.89 inHg , 1012.2 hPa
Clouds: Few Clouds
Visibility: 10 miles , 16 km
Cloud details: Few Clouds 7000 ft
2018/09/18 22:53 KSJC 182253Z 32011KT 10SM FEW070 22/12 A2989 RMK AO2 SLP121 T02220122
KNUQ - Moffett Nas/Mtn, California, USA
Distance from station: N 9mi, 14km
Updated: Tue, Sep-18-2018 5:56pm CDT
Clear
Clear
 Wind from N
Wind: N 16 mph , 26 km/h
Temperature: 70°F , 21°C
Dew Point: 55°F , 13°C
Humidity: 60%
Barometer: 29.90 inHg , 1012.5 hPa
Clouds: Clear
Visibility: 10 miles , 16 km
2018/09/18 22:56 KNUQ 182256Z 35014KT 10SM CLR 21/13 A2990 RMK AO2 SLP128 T02060133 $
 
KPAO - Palo Alto, California, USA
Distance from station: NNW 14mi, 23km
Updated: Tue, Sep-18-2018 5:47pm CDT
Clear
Clear
 Wind from NW
Wind: NW 15 mph , 24 km/h
Temperature: 70°F , 21°C
Dew Point: 55°F , 13°C
Humidity: 60%
Barometer: 29.91 inHg , 1012.9 hPa
Clouds: Clear
Visibility: 10 miles , 16 km
2018/09/18 22:47 KPAO 182247Z 32013KT 10SM SKC 21/13 A2991
KRHV - San Jose/Reid, California, USA
Distance from station: ENE 12mi, 19km
Updated: Tue, Sep-18-2018 5:47pm CDT
Clear
Clear
 Wind from NW
Wind: NW 12 mph , 19 km/h
Temperature: 77°F , 25°C
Dew Point: 45°F , 7°C
Humidity: 32%
Barometer: 29.87 inHg , 1011.5 hPa
Clouds: Clear
Visibility: 10 miles , 16 km
2018/09/18 22:47 KRHV 182247Z 32010KT 10SM SKC 25/07 A2987
 
KOAK - Oakland, California, USA
Distance from station: NNW 31mi, 50km
Updated: Tue, Sep-18-2018 5:53pm CDT
Few Clouds
Few Clouds
 Wind from WNW
Wind: WNW 16 mph , 26 km/h
Temperature: 63°F , 17°C
Dew Point: 54°F , 12°C
Humidity: 73%
Barometer: 29.91 inHg , 1012.9 hPa
Clouds: Few Clouds
Visibility: 10 miles , 16 km
Cloud details: Few Clouds 1000 ft
Few Clouds 5000 ft
2018/09/18 22:53 KOAK 182253Z 29014KT 10SM FEW010 FEW050 17/12 A2991 RMK AO2 SLP128 T01720117
KSQL - San Carlos Airpo, California, USA
Distance from station: NW 21mi, 34km
Updated: Tue, Sep-18-2018 5:47pm CDT
Clear
Clear
 Wind from W
Wind: W 12 mph , 19 km/h
Temperature: 72°F , 22°C
Dew Point: 52°F , 11°C
Humidity: 50%
Barometer: 29.90 inHg , 1012.5 hPa
Clouds: Clear
Visibility: 10 miles , 16 km
2018/09/18 22:47 KSQL 182247Z 27010KT 10SM SKC 22/11 A2990
 
KSFO - San Francisco, California, USA
Distance from station: NW 30mi, 49km
Updated: Tue, Sep-18-2018 5:56pm CDT
Few Clouds
Few Clouds
 Wind from W
Wind: W 21 mph , 33 km/h
Temperature: 61°F , 16°C
Dew Point: 50°F , 10°C
Humidity: 68%
Barometer: 29.91 inHg , 1012.9 hPa
Clouds: Few Clouds
Visibility: 10 miles , 16 km
Cloud details: Few Clouds 500 ft
Few Clouds 20000 ft
2018/09/18 22:56 KSFO 182256Z 28018KT 10SM FEW005 FEW200 16/10 A2991 RMK AO2 SLP128 T01610100
KE16 - San Martin, California, USA
Distance from station: ESE 27mi, 43km
Updated: Tue, Sep-18-2018 5:50pm CDT
Clear
Clear
 Wind from SSW
Wind: SSW 9 mph , 15 km/h
Temperature: 77°F , 25°C
Dew Point: 48°F , 9°C
Humidity: 36%
Barometer: 29.89 inHg , 1012.2 hPa
Clouds: Clear
Visibility: 10 miles , 16 km
2018/09/18 22:50 KE16 182250Z AUTO 20008KT 10SM CLR 25/09 A2989 RMK AO2
 
KWVI - Watsonville, California, USA
Distance from station: SSE 27mi, 44km
Updated: Tue, Sep-18-2018 5:53pm CDT
Clear
Clear
 
Temperature: 64°F , 18°C
Dew Point: 52°F , 11°C
Humidity: 64%
Barometer: 29.92 inHg , 1013.2 hPa
Clouds: Clear
Visibility: 10 miles , 16 km
2018/09/18 22:53 KWVI 182253Z AUTO 10SM CLR 18/11 A2992 RMK AO2 SLP132 T01830111
KHAF - Half Moon Bay, California, USA
Distance from station: WNW 31mi, 50km
Updated: Tue, Sep-18-2018 5:55pm CDT
Overcast
Overcast
 Wind from N
Wind: N 9 mph , 15 km/h
Temperature: 55°F , 13°C
Dew Point: 52°F , 11°C
Humidity: 88%
Barometer: 29.96 inHg , 1014.6 hPa
Clouds: Overcast
Visibility: 7 miles , 11 km
Cloud details: Overcast 900 ft
2018/09/18 22:55 KHAF 182255Z AUTO 35008KT 7SM OVC009 13/11 A2996 RMK AO2
 
KHWD - Hayward, California, USA
Distance from station: N 28mi, 44km
Updated: Tue, Sep-18-2018 5:54pm CDT
Clear
Clear
 Wind from WNW
Wind: WNW 13 mph , 20 km/h
Temperature: 68°F , 20°C
Dew Point: 54°F , 12°C
Humidity: 60%
Barometer: 29.91 inHg , 1012.9 hPa
Clouds: Clear
Visibility: 10 miles , 16 km
2018/09/18 22:54 KHWD 182254Z 29011KT 10SM CLR 20/12 A2991 RMK AO2 SLP135 T02000117
KLVK - Livermore, California, USA
Distance from station: NNE 31mi, 51km
Updated: Tue, Sep-18-2018 5:53pm CDT
Clear
Clear
 Wind from W
Wind: W 10 mph , 17 km/h
Temperature: 79°F , 26°C
Dew Point: 43°F , 6°C
Humidity: 28%
Barometer: 29.87 inHg , 1011.5 hPa
Clouds: Clear
Visibility: 10 miles , 16 km
2018/09/18 22:53 KLVK 182253Z AUTO 27009KT 10SM CLR 26/06 A2987 RMK AO2 SLP112 T02610061